Time;durP1;ratioP1;P1;durP2;ratioP2;P2;SDS_P1;SDS_P2;PMS_P1;PMS_P2;Temp;Humidity;BMP_temperature;BMP_pressure;BME280_temperature;BME280_humidity;BME280_pressure;Samples;Min_cycle;Max_cycle;Signal;HPM_P1;HPM_P2
2021/03/07 00:00:57;;;;;;;46.53;29.70;;;;;;;-6.70;75.71;97177.28;5012071;28;20049;-55
2021/03/07 00:03:25;;;;;;;61.83;30.38;;;;;;;-6.74;76.11;97175.84;4994699;28;20052;-55
2021/03/07 00:05:52;;;;;;;61.00;32.15;;;;;;;-6.74;75.74;97177.63;5014455;28;20065;-55
2021/03/07 00:08:20;;;;;;;58.17;29.50;;;;;;;-6.80;76.19;97177.13;4989513;28;20045;-54
2021/03/07 00:10:47;;;;;;;42.92;24.45;;;;;;;-6.81;76.88;97175.50;5008566;28;20045;-54
2021/03/07 00:13:15;;;;;;;39.80;24.13;;;;;;;-6.86;76.91;97175.06;4986818;28;20401;-54
2021/03/07 00:15:42;;;;;;;45.28;23.88;;;;;;;-6.88;76.85;97166.66;5004399;28;20057;-55
2021/03/07 00:18:10;;;;;;;44.20;24.70;;;;;;;-6.90;77.03;97175.41;4984415;28;20056;-55
2021/03/07 00:20:37;;;;;;;53.90;27.85;;;;;;;-6.89;76.80;97162.44;4985525;28;20045;-54
2021/03/07 00:23:05;;;;;;;54.88;31.10;;;;;;;-6.90;76.88;97165.94;5002171;28;20048;-54
2021/03/07 00:25:32;;;;;;;49.08;29.17;;;;;;;-6.92;77.26;97162.66;4984844;28;20060;-55
2021/03/07 00:27:59;;;;;;;47.75;26.15;;;;;;;-6.88;77.21;97164.09;4999990;28;20056;-54
2021/03/07 00:30:26;;;;;;;45.30;27.45;;;;;;;-6.86;76.85;97157.09;5006319;28;20054;-54
2021/03/07 00:32:53;;;;;;;53.65;29.20;;;;;;;-6.80;76.91;97171.19;5004897;28;20046;-55
2021/03/07 00:35:21;;;;;;;38.20;24.02;;;;;;;-6.75;77.19;97165.72;5003813;28;20069;-55
2021/03/07 00:37:48;;;;;;;45.67;25.60;;;;;;;-6.74;76.29;97164.78;4986844;28;20080;-59
2021/03/07 00:40:15;;;;;;;53.10;29.70;;;;;;;-6.76;76.61;97157.19;5003997;28;20156;-54
2021/03/07 00:42:48;;;;;;;55.28;30.33;;;;;;;-6.83;76.67;97158.59;4988855;28;20053;-55
2021/03/07 00:45:17;;;;;;;48.00;29.35;;;;;;;-6.85;76.96;97145.91;5003648;28;20072;-55
2021/03/07 00:47:45;;;;;;;53.75;30.25;;;;;;;-6.83;76.55;97151.72;5012324;28;20053;-54
2021/03/07 00:50:22;;;;;;;50.33;30.17;;;;;;;-6.88;75.79;97142.72;5004501;28;20054;-58
2021/03/07 00:52:57;;;;;;;51.22;30.10;;;;;;;-6.93;76.69;97144.84;5003899;28;20059;-54
2021/03/07 00:55:25;;;;;;;49.92;28.00;;;;;;;-6.98;76.35;97140.06;4989817;28;20065;-57
2021/03/07 00:57:53;;;;;;;52.83;29.42;;;;;;;-6.99;77.01;97130.72;5007284;28;20072;-54
2021/03/07 01:00:27;;;;;;;52.85;29.13;;;;;;;-6.98;76.96;97140.06;5005647;28;20060;-55
2021/03/07 01:02:54;;;;;;;43.20;28.00;;;;;;;-7.07;76.79;97133.03;4991748;28;20429;-55
2021/03/07 01:05:26;;;;;;;48.53;27.98;;;;;;;-7.09;77.53;97132.34;4991425;28;20037;-57
2021/03/07 01:07:54;;;;;;;47.95;27.73;;;;;;;-7.19;77.32;97125.31;5002900;28;20057;-54
2021/03/07 01:10:23;;;;;;;42.67;27.60;;;;;;;-7.15;77.20;97125.94;5015141;28;20555;-54
2021/03/07 01:12:51;;;;;;;42.90;22.98;;;;;;;-7.12;77.12;97123.13;5009004;28;20057;-55
2021/03/07 01:15:29;;;;;;;41.15;25.88;;;;;;;-7.11;77.63;97125.59;5003169;28;20049;-54
2021/03/07 01:17:57;;;;;;;40.45;24.77;;;;;;;-7.13;77.03;97114.63;5008505;28;20045;-54
2021/03/07 01:20:24;;;;;;;41.97;24.13;;;;;;;-7.15;77.21;97108.78;4974387;28;20049;-54
2021/03/07 01:22:55;;;;;;;44.10;24.95;;;;;;;-7.19;77.63;97109.13;4990104;28;20684;-54
2021/03/07 01:25:28;;;;;;;40.47;23.70;;;;;;;-7.22;77.63;97102.50;5011034;28;20060;-55
2021/03/07 01:27:55;;;;;;;39.55;24.08;;;;;;;-7.28;77.47;97092.69;4991423;28;20367;-55
2021/03/07 01:30:24;;;;;;;43.28;23.58;;;;;;;-7.33;78.19;97094.78;5013608;28;20053;-55
2021/03/07 01:32:53;;;;;;;43.80;28.60;;;;;;;-7.36;77.38;97098.38;5012881;28;20056;-55
2021/03/07 01:35:21;;;;;;;53.25;28.02;;;;;;;-7.39;77.88;97102.91;4990535;28;20041;-55
2021/03/07 01:37:49;;;;;;;57.50;29.50;;;;;;;-7.37;78.37;97094.16;5012451;28;20068;-54
2021/03/07 01:40:29;;;;;;;49.28;27.60;;;;;;;-7.41;77.66;97091.03;4992228;28;20049;-55
2021/03/07 01:42:58;;;;;;;51.83;28.20;;;;;;;-7.45;78.48;97089.63;5013633;28;20089;-56
2021/03/07 01:45:27;;;;;;;44.65;26.00;;;;;;;-7.44;78.68;97088.69;5012272;28;20467;-55
2021/03/07 01:47:57;;;;;;;39.75;23.58;;;;;;;-7.45;78.24;97076.00;5007710;28;20943;-54
2021/03/07 01:50:28;;;;;;;37.95;22.00;;;;;;;-7.38;78.22;97079.72;4988099;28;20501;-54
2021/03/07 01:52:55;;;;;;;38.80;21.02;;;;;;;-7.37;77.93;97078.78;4989066;28;20053;-55
2021/03/07 01:55:25;;;;;;;41.38;23.50;;;;;;;-7.33;78.07;97076.84;5004544;28;20069;-54
2021/03/07 01:58:03;;;;;;;39.72;23.27;;;;;;;-7.37;77.14;97065.16;5009809;28;20079;-56
2021/03/07 02:00:30;;;;;;;36.85;22.48;;;;;;;-7.45;77.99;97064.00;4983965;28;20776;-56
2021/03/07 02:02:57;;;;;;;38.25;23.75;;;;;;;-7.49;78.20;97072.84;5014613;28;20072;-55
2021/03/07 02:05:26;;;;;;;36.75;23.40;;;;;;;-7.54;78.43;97069.78;4991427;28;20183;-54
2021/03/07 02:07:55;;;;;;;35.88;22.30;;;;;;;-7.57;78.41;97059.78;5012522;28;20053;-54
2021/03/07 02:10:22;;;;;;;39.33;22.20;;;;;;;-7.57;77.99;97059.78;4992069;28;20057;-55
2021/03/07 02:12:52;;;;;;;36.63;21.80;;;;;;;-7.57;78.12;97054.66;4988713;28;20049;-55
2021/03/07 02:15:21;;;;;;;30.20;20.02;;;;;;;-7.54;78.00;97053.63;4975826;28;20052;-54
2021/03/07 02:17:54;;;;;;;37.33;21.60;;;;;;;-7.54;77.82;97056.19;4976520;28;20060;-57
2021/03/07 02:20:24;;;;;;;31.15;19.70;;;;;;;-7.55;77.98;97050.22;5002342;28;20056;-55
2021/03/07 02:23:00;;;;;;;31.98;21.27;;;;;;;-7.55;77.82;97042.53;5007295;28;20045;-55
2021/03/07 02:25:29;;;;;;;34.83;21.02;;;;;;;-7.58;77.75;97041.03;4972393;28;20064;-54
2021/03/07 02:27:58;;;;;;;35.53;21.45;;;;;;;-7.54;78.80;97039.03;5007281;28;20049;-54
2021/03/07 02:30:26;;;;;;;33.55;21.83;;;;;;;-7.61;78.47;97038.69;4986188;28;20052;-55
2021/03/07 02:33:32;;;;;;;33.55;20.10;;;;;;;-7.63;78.22;97040.53;4990116;28;20798;-54
2021/03/07 02:36:05;;;;;;;29.08;18.75;;;;;;;-7.63;78.52;97035.41;4897382;29;20051;-55
2021/03/07 02:38:35;;;;;;;40.28;23.05;;;;;;;-7.65;78.56;97031.34;4974478;28;20191;-55
2021/03/07 02:41:05;;;;;;;43.10;23.65;;;;;;;-7.77;78.63;97025.38;5011150;28;20053;-55
2021/03/07 02:43:38;;;;;;;37.40;23.02;;;;;;;-7.77;78.71;97033.06;5007973;28;20128;-54
2021/03/07 02:46:07;;;;;;;37.13;22.67;;;;;;;-7.81;78.08;97017.09;5000601;28;20057;-55
2021/03/07 02:48:37;;;;;;;33.03;22.55;;;;;;;-7.81;78.57;97027.34;4993536;28;20049;-54
2021/03/07 02:51:09;;;;;;;38.70;23.75;;;;;;;-7.82;77.93;97030.03;5005651;28;20057;-55
2021/03/07 02:53:39;;;;;;;35.35;21.80;;;;;;;-7.81;78.75;97029.91;5004887;28;20065;-55
2021/03/07 02:56:11;;;;;;;36.97;21.50;;;;;;;-7.79;78.70;97025.47;4971340;28;20061;-54
2021/03/07 02:58:40;;;;;;;40.80;24.65;;;;;;;-7.78;78.35;97024.56;4970491;28;20053;-55
2021/03/07 03:01:10;;;;;;;41.75;23.45;;;;;;;-7.79;78.74;97020.34;4998040;28;20079;-55
2021/03/07 03:03:41;;;;;;;39.22;21.83;;;;;;;-7.79;78.26;97029.81;4999239;28;20779;-54
2021/03/07 03:06:10;;;;;;;41.85;24.35;;;;;;;-7.77;78.33;97021.06;5007110;28;20056;-56
2021/03/07 03:08:40;;;;;;;35.03;20.30;;;;;;;-7.81;78.38;97017.09;5016751;28;20137;-54
2021/03/07 03:11:08;;;;;;;36.15;21.30;;;;;;;-7.83;78.71;97018.16;4983387;28;20104;-54
2021/03/07 03:13:37;;;;;;;33.03;19.88;;;;;;;-7.91;78.41;97016.13;5005818;28;20076;-54
2021/03/07 03:16:06;;;;;;;33.08;18.80;;;;;;;-7.96;78.88;97024.16;5007640;28;20081;-54
2021/03/07 03:18:35;;;;;;;33.72;18.42;;;;;;;-7.93;78.38;97011.16;4970217;28;20604;-55
2021/03/07 03:21:09;;;;;;;30.67;18.67;;;;;;;-8.05;78.49;97015.41;5001263;28;20046;-55
2021/03/07 03:23:38;;;;;;;36.83;21.38;;;;;;;-8.15;78.64;97021.31;4997507;28;20050;-59
2021/03/07 03:26:09;;;;;;;35.03;20.45;;;;;;;-8.14;78.96;97022.94;5000489;28;20076;-55
2021/03/07 03:28:39;;;;;;;30.33;19.35;;;;;;;-8.16;79.18;97017.94;5003526;28;20148;-54
2021/03/07 03:31:07;;;;;;;27.33;16.45;;;;;;;-8.19;78.78;97013.06;5007126;28;20161;-54
2021/03/07 03:33:34;;;;;;;30.15;18.13;;;;;;;-8.15;78.99;97011.06;5006607;28;20073;-56
2021/03/07 03:36:01;;;;;;;22.83;14.48;;;;;;;-8.16;79.09;97012.00;4989236;28;20504;-55
2021/03/07 03:38:41;;;;;;;25.98;16.40;;;;;;;-8.18;79.01;97005.25;4986826;28;22396;-55
2021/03/07 03:41:09;;;;;;;25.48;17.08;;;;;;;-8.20;78.92;97001.97;5002933;28;20045;-55
2021/03/07 03:43:56;;;;;;;31.05;16.92;;;;;;;-8.25;79.02;96993.84;4996139;28;20422;-55
2021/03/07 03:46:25;;;;;;;24.65;16.20;;;;;;;-8.28;79.47;96990.66;5004468;28;20052;-55
2021/03/07 03:48:59;;;;;;;27.13;16.40;;;;;;;-8.20;80.01;96993.50;5006570;28;20056;-58
2021/03/07 03:51:33;;;;;;;31.02;17.65;;;;;;;-8.21;80.21;96979.06;5002927;28;20049;-55
2021/03/07 03:54:02;;;;;;;26.65;17.13;;;;;;;-8.16;80.12;96978.72;4982901;28;20522;-55
2021/03/07 03:56:30;;;;;;;30.88;15.88;;;;;;;-8.17;80.36;96977.88;5008844;28;20740;-55
2021/03/07 03:58:58;;;;;;;25.50;16.67;;;;;;;-8.15;79.66;96973.47;5004951;28;20084;-55
2021/03/07 04:01:26;;;;;;;35.83;18.90;;;;;;;-8.13;79.75;96971.63;4975095;28;20044;-55
2021/03/07 04:03:54;;;;;;;33.15;20.40;;;;;;;-8.11;80.08;96979.19;5003393;28;20063;-55
2021/03/07 04:06:23;;;;;;;24.55;16.67;;;;;;;-8.17;80.13;96965.09;4999446;28;20041;-55
2021/03/07 04:08:52;;;;;;;34.97;19.73;;;;;;;-8.08;81.36;96968.72;4988610;28;20486;-55
2021/03/07 04:11:24;;;;;;;31.95;19.17;;;;;;;-8.08;80.79;96963.59;5004071;28;20863;-55
2021/03/07 04:13:57;;;;;;;28.02;17.45;;;;;;;-8.11;79.92;96956.16;5004913;28;20076;-54
2021/03/07 04:16:25;;;;;;;25.75;18.42;;;;;;;-8.11;79.79;96954.41;4990976;28;20597;-54
2021/03/07 04:18:53;;;;;;;32.65;18.00;;;;;;;-8.09;79.48;96961.97;5008999;28;20060;-55
2021/03/07 04:21:22;;;;;;;32.97;19.90;;;;;;;-8.13;79.79;96958.03;5004239;28;20057;-54
2021/03/07 04:23:49;;;;;;;34.88;21.40;;;;;;;-8.14;79.71;96953.84;5012464;28;20488;-54
2021/03/07 04:26:18;;;;;;;33.25;21.20;;;;;;;-8.23;79.35;96960.44;5011883;28;20049;-55
2021/03/07 04:28:46;;;;;;;41.10;21.63;;;;;;;-8.29;79.93;96956.56;4992674;28;20057;-54
2021/03/07 04:31:15;;;;;;;37.08;21.30;;;;;;;-8.24;79.64;96958.81;4992366;28;20060;-55
2021/03/07 04:33:44;;;;;;;29.05;20.02;;;;;;;-8.23;79.73;96942.50;4998426;28;20053;-55
2021/03/07 04:36:11;;;;;;;36.08;20.52;;;;;;;-8.23;79.48;96951.00;5004843;28;20069;-54
2021/03/07 04:38:39;;;;;;;30.63;17.77;;;;;;;-8.32;79.22;96950.88;5010597;28;20049;-54
2021/03/07 04:41:06;;;;;;;31.95;18.65;;;;;;;-8.41;79.74;96947.22;4990735;28;20386;-55
2021/03/07 04:43:47;;;;;;;30.02;15.95;;;;;;;-8.45;80.23;96940.69;5008991;28;20053;-54
2021/03/07 04:46:19;;;;;;;24.73;15.65;;;;;;;-8.43;80.27;96943.97;5006351;28;20056;-54
2021/03/07 04:48:47;;;;;;;27.30;17.77;;;;;;;-8.50;80.29;96938.50;4994083;28;21492;-55
2021/03/07 04:51:15;;;;;;;34.50;21.38;;;;;;;-8.44;81.33;96942.31;4995868;28;20049;-54
2021/03/07 04:53:43;;;;;;;39.05;21.92;;;;;;;-8.34;81.61;96935.59;5005845;28;20607;-55
2021/03/07 04:56:10;;;;;;;39.33;22.38;;;;;;;-8.30;81.27;96933.63;5008724;28;22990;-55
2021/03/07 04:58:37;;;;;;;29.83;18.85;;;;;;;-8.36;81.33;96938.28;5008886;28;20176;-55
2021/03/07 05:01:05;;;;;;;25.52;16.10;;;;;;;-8.38;80.46;96936.78;4990197;28;20970;-55
2021/03/07 05:03:33;;;;;;;30.35;17.95;;;;;;;-8.39;80.62;96940.25;5009411;28;20060;-54
2021/03/07 05:06:00;;;;;;;35.22;17.42;;;;;;;-8.41;79.74;96937.81;5006712;28;20053;-56
2021/03/07 05:08:29;;;;;;;39.78;23.25;;;;;;;-8.38;81.28;96931.66;4993493;28;20042;-55
2021/03/07 05:10:56;;;;;;;40.53;23.73;;;;;;;-8.38;80.58;96931.66;5004653;28;20049;-55
2021/03/07 05:13:23;;;;;;;36.47;21.83;;;;;;;-8.36;80.64;96935.72;5010806;28;20057;-54
2021/03/07 05:15:51;;;;;;;28.35;18.27;;;;;;;-8.36;80.46;96929.78;4979857;28;20053;-54
2021/03/07 05:18:19;;;;;;;28.17;17.40;;;;;;;-8.40;80.08;96933.50;5011164;28;20045;-54
2021/03/07 05:20:46;;;;;;;29.95;18.80;;;;;;;-8.39;80.68;96928.28;5013877;28;20045;-56
2021/03/07 05:23:14;;;;;;;32.13;20.33;;;;;;;-8.32;80.41;96925.28;5006305;28;20053;-55
2021/03/07 05:25:41;;;;;;;33.55;19.83;;;;;;;-8.26;80.48;96923.09;5005848;28;20056;-54
2021/03/07 05:28:09;;;;;;;34.28;21.55;;;;;;;-8.22;80.84;96911.69;5009216;28;20054;-54
2021/03/07 05:30:37;;;;;;;33.53;20.88;;;;;;;-8.20;80.55;96920.06;5002502;28;20441;-54
2021/03/07 05:33:04;;;;;;;36.85;22.42;;;;;;;-8.16;80.34;96912.16;5011477;28;20058;-54
2021/03/07 05:35:32;;;;;;;31.77;18.98;;;;;;;-8.21;80.40;96907.38;5003557;28;20076;-54
2021/03/07 05:37:59;;;;;;;35.00;22.17;;;;;;;-8.14;79.83;96913.66;4988415;28;20443;-54
2021/03/07 05:40:32;;;;;;;38.83;21.80;;;;;;;-8.09;79.95;96901.34;5014160;28;20041;-54
2021/03/07 05:42:59;;;;;;;36.78;21.55;;;;;;;-8.07;79.90;96898.66;5006441;28;20501;-57
2021/03/07 05:45:27;;;;;;;42.63;24.05;;;;;;;-8.02;79.72;96901.72;5012847;28;20049;-54
2021/03/07 05:47:54;;;;;;;36.42;22.98;;;;;;;-8.00;80.06;96899.03;5004951;28;20654;-54
2021/03/07 05:50:22;;;;;;;40.80;24.15;;;;;;;-8.01;79.42;96897.41;4991566;28;20050;-55
2021/03/07 05:52:53;;;;;;;45.78;27.00;;;;;;;-7.99;80.25;96900.66;4991617;28;21622;-54
2021/03/07 05:55:23;;;;;;;44.45;24.08;;;;;;;-8.05;80.47;96905.31;4981599;28;20046;-55
2021/03/07 05:57:50;;;;;;;39.78;23.92;;;;;;;-8.03;80.26;96905.19;5011700;28;20056;-55
2021/03/07 06:00:19;;;;;;;42.22;29.45;;;;;;;-7.95;80.62;96915.69;4989099;28;20065;-56
2021/03/07 06:02:47;;;;;;;45.58;29.02;;;;;;;-7.91;80.72;96908.56;5000376;28;20092;-55
2021/03/07 06:05:16;;;;;;;50.17;31.17;;;;;;;-7.87;81.67;96905.66;4996502;28;20056;-54
2021/03/07 06:07:49;;;;;;;57.22;34.72;;;;;;;-7.79;81.19;96917.91;4985039;28;20052;-55
2021/03/07 06:10:28;;;;;;;61.60;36.65;;;;;;;-7.70;81.59;96915.59;5009032;28;21792;-54
2021/03/07 06:13:05;;;;;;;54.17;31.65;;;;;;;-7.68;81.20;96903.47;5014306;28;20516;-55
2021/03/07 06:15:50;;;;;;;57.47;32.33;;;;;;;-7.50;80.99;96914.88;5003117;28;20050;-57
2021/03/07 06:18:21;;;;;;;41.65;26.77;;;;;;;-7.36;80.86;96916.38;5011823;28;21289;-55
2021/03/07 06:20:51;;;;;;;47.97;29.40;;;;;;;-7.31;80.78;96919.41;5008036;28;20053;-56
2021/03/07 06:23:32;;;;;;;48.95;27.50;;;;;;;-7.26;80.56;96919.06;5003189;28;20061;-55
2021/03/07 06:26:10;;;;;;;44.17;26.55;;;;;;;-7.12;80.64;96915.41;5002571;28;20060;-54
2021/03/07 06:28:38;;;;;;;48.13;28.20;;;;;;;-6.93;79.69;96922.47;5003035;28;20052;-54
2021/03/07 06:31:29;;;;;;;47.97;29.83;;;;;;;-6.78;79.60;96927.34;5001977;28;20049;-54
2021/03/07 06:33:57;;;;;;;43.92;28.00;;;;;;;-6.81;79.80;96918.94;5007832;28;20049;-54
2021/03/07 06:36:27;;;;;;;42.75;27.60;;;;;;;-6.68;79.87;96923.09;5004050;28;20061;-57
2021/03/07 06:39:01;;;;;;;47.55;27.42;;;;;;;-6.58;79.71;96918.84;5010092;28;20080;-55
2021/03/07 06:41:30;;;;;;;39.25;26.90;;;;;;;-6.55;79.95;96918.59;4990305;28;20054;-55
2021/03/07 06:44:15;;;;;;;44.42;25.60;;;;;;;-6.47;79.43;96904.38;5003951;28;20041;-54
2021/03/07 06:46:47;;;;;;;33.08;21.67;;;;;;;-6.26;78.78;96909.47;5003247;28;20046;-56
2021/03/07 06:49:23;;;;;;;43.78;25.27;;;;;;;-6.18;78.37;96915.63;5012648;28;20061;-55
2021/03/07 06:51:51;;;;;;;41.15;24.70;;;;;;;-6.07;78.22;96911.34;4980599;28;20054;-55
2021/03/07 06:54:21;;;;;;;48.30;28.65;;;;;;;-5.96;77.76;96908.69;5002817;28;20045;-55
2021/03/07 06:56:50;;;;;;;38.85;25.45;;;;;;;-5.87;76.87;96902.81;5011167;28;20057;-56
2021/03/07 06:59:19;;;;;;;44.30;26.77;;;;;;;-5.76;76.43;96906.22;4971477;28;20057;-54
2021/03/07 07:01:49;;;;;;;43.50;27.02;;;;;;;-5.66;76.06;96901.94;4989146;28;20674;-54
2021/03/07 07:04:17;;;;;;;37.85;24.38;;;;;;;-5.57;75.67;96896.00;4988381;28;20441;-53
2021/03/07 07:07:03;;;;;;;33.13;21.73;;;;;;;-5.53;74.71;96894.00;5005756;28;20410;-55
2021/03/07 07:09:31;;;;;;;;;;;;;;;-5.42;75.74;96887.94;4989242;28;20041;-55
2021/03/07 07:11:59;;;;;;;40.60;23.73;;;;;;;-5.33;74.86;96883.78;4992392;28;19936;-55
2021/03/07 07:14:34;;;;;;;44.08;25.95;;;;;;;-5.21;73.90;96882.72;4988204;28;20293;-54
2021/03/07 07:17:02;;;;;;;42.90;26.05;;;;;;;-5.08;73.93;96884.25;4987707;28;20056;-56
2021/03/07 07:19:29;;;;;;;37.70;21.73;;;;;;;-4.98;73.22;96875.56;4990789;28;20064;-54
2021/03/07 07:21:56;;;;;;;46.70;28.02;;;;;;;-4.87;73.11;96874.66;4992449;28;20398;-57
2021/03/07 07:24:24;;;;;;;38.88;24.15;;;;;;;-4.77;72.46;96879.81;4990459;28;20073;-56
2021/03/07 07:26:51;;;;;;;38.00;25.27;;;;;;;-4.72;72.17;96862.19;4987137;28;20065;-55
2021/03/07 07:29:19;;;;;;;41.38;25.30;;;;;;;-4.65;72.52;96870.16;4983067;28;20694;-54
2021/03/07 07:31:55;;;;;;;39.63;25.90;;;;;;;-4.54;72.04;96867.44;5007187;28;20904;-56
2021/03/07 07:34:28;;;;;;;41.45;25.23;;;;;;;-4.50;72.20;96865.44;4997643;28;20052;-54
2021/03/07 07:36:58;;;;;;;46.45;28.42;;;;;;;-4.40;70.97;96850.78;5001492;28;20608;-55
2021/03/07 07:39:34;;;;;;;47.00;28.63;;;;;;;-4.32;72.38;96848.31;4999003;28;20685;-57
2021/03/07 07:42:23;;;;;;;49.15;28.85;;;;;;;-4.27;71.65;96844.53;5003414;28;20052;-57
2021/03/07 07:44:57;;;;;;;48.25;29.05;;;;;;;-4.24;71.48;96844.22;4964362;28;20052;-55
2021/03/07 07:47:40;;;;;;;44.40;26.77;;;;;;;-4.20;69.90;96835.28;4983464;28;20156;-55
2021/03/07 07:50:27;;;;;;;42.97;26.13;;;;;;;-4.05;69.97;96833.88;5003889;28;20057;-60
2021/03/07 07:52:56;;;;;;;45.05;24.50;;;;;;;-3.93;69.89;96825.97;4988553;28;20045;-54
2021/03/07 07:55:53;;;;;;;42.47;26.85;;;;;;;-3.84;69.54;96827.69;4973836;28;20053;-59
2021/03/07 07:58:34;;;;;;;47.55;25.42;;;;;;;-3.79;69.35;96816.94;4983787;28;20037;-55
2021/03/07 08:01:12;;;;;;;44.83;25.95;;;;;;;-3.75;68.35;96813.94;5010006;28;20050;-55
2021/03/07 08:03:45;;;;;;;40.45;24.10;;;;;;;-3.68;68.23;96814.19;5006296;28;20093;-55
2021/03/07 08:06:35;;;;;;;34.78;23.40;;;;;;;-3.60;68.77;96816.88;5011002;28;20052;-54
2021/03/07 08:09:39;;;;;;;37.35;23.60;;;;;;;-3.40;68.17;96811.59;5019115;28;20052;-55
2021/03/07 08:12:44;;;;;;;32.47;21.67;;;;;;;-3.24;67.45;96805.78;5010975;28;20060;-54
2021/03/07 08:15:32;;;;;;;39.40;25.27;;;;;;;-3.13;68.94;96805.56;5005197;28;20056;-56
2021/03/07 08:18:02;;;;;;;32.80;22.20;;;;;;;-2.98;70.43;96800.72;4968787;28;20053;-57
2021/03/07 08:20:43;;;;;;;34.38;21.60;;;;;;;-2.85;67.22;96796.94;5005235;28;20501;-54
2021/03/07 08:23:15;;;;;;;36.15;22.20;;;;;;;-2.68;67.61;96795.31;5003354;28;20049;-54
2021/03/07 08:25:47;;;;;;;30.85;22.42;;;;;;;-2.57;66.21;96791.66;4969991;28;20760;-54
2021/03/07 08:28:30;;;;;;;33.67;21.38;;;;;;;-2.46;64.81;96778.47;4987018;28;20061;-54
2021/03/07 08:30:59;;;;;;;28.23;18.83;;;;;;;-2.33;65.56;96778.88;5003392;28;20075;-54
2021/03/07 08:33:29;;;;;;;28.45;19.50;;;;;;;-2.18;65.03;96776.56;5008614;28;20045;-54
2021/03/07 08:36:26;;;;;;;31.85;20.63;;;;;;;-2.03;66.29;96776.78;5016283;28;20053;-54
2021/03/07 08:38:54;;;;;;;34.42;22.70;;;;;;;-1.86;64.79;96769.91;4991678;28;21071;-54
2021/03/07 08:41:26;;;;;;;30.92;21.50;;;;;;;-1.70;63.44;96758.81;5009957;28;20038;-54
2021/03/07 08:43:55;;;;;;;28.35;20.52;;;;;;;-1.49;64.98;96755.00;5010711;28;20049;-54
2021/03/07 08:46:45;;;;;;;32.92;22.30;;;;;;;-1.33;65.11;96749.03;4995722;28;20045;-54
2021/03/07 08:49:19;;;;;;;30.55;21.65;;;;;;;-1.22;64.07;96747.91;5005201;28;20049;-54
2021/03/07 08:51:50;;;;;;;37.50;20.92;;;;;;;-1.00;62.42;96743.09;5015442;28;20045;-55
2021/03/07 08:54:20;;;;;;;31.80;21.08;;;;;;;-0.82;64.18;96743.72;4998160;28;20056;-54
2021/03/07 08:56:53;;;;;;;30.60;20.98;;;;;;;-0.64;62.21;96730.56;5006971;28;20538;-57
2021/03/07 08:59:28;;;;;;;36.30;22.40;;;;;;;-0.42;61.56;96732.66;5021436;28;20049;-54
2021/03/07 09:01:56;;;;;;;27.00;16.63;;;;;;;-0.27;58.96;96722.41;5005660;28;20037;-56
2021/03/07 09:04:32;;;;;;;7.95;5.55;;;;;;;-0.09;52.40;96719.56;5007948;28;20064;-54
2021/03/07 09:07:00;;;;;;;17.13;8.45;;;;;;;0.14;51.81;96706.69;4995743;28;20058;-55
2021/03/07 09:09:28;;;;;;;14.68;9.18;;;;;;;0.33;51.59;96704.63;5012135;28;20053;-54
2021/03/07 09:12:02;;;;;;;16.27;7.47;;;;;;;0.55;50.75;96706.47;4992570;28;20050;-55
2021/03/07 09:14:34;;;;;;;13.00;7.57;;;;;;;0.76;50.84;96694.63;4995473;28;20057;-54
2021/03/07 09:17:05;;;;;;;10.40;5.82;;;;;;;0.96;48.57;96696.72;5008946;28;20691;-55
2021/03/07 09:19:35;;;;;;;7.05;4.18;;;;;;;1.12;43.11;96685.38;5018241;28;20041;-54
2021/03/07 09:22:26;;;;;;;7.10;4.47;;;;;;;1.27;45.09;96691.44;5012716;28;20037;-55
2021/03/07 09:25:01;;;;;;;6.10;3.20;;;;;;;1.38;41.61;96687.59;5020428;28;20053;-54
2021/03/07 09:27:34;;;;;;;6.07;2.95;;;;;;;1.45;40.27;96678.09;5018645;28;20951;-54
2021/03/07 09:30:19;;;;;;;8.10;5.35;;;;;;;1.59;41.35;96681.69;5013352;28;20049;-53
2021/03/07 09:32:51;;;;;;;4.15;3.08;;;;;;;1.69;40.97;96677.03;4991185;28;20324;-53
2021/03/07 09:35:23;;;;;;;5.25;3.17;;;;;;;1.79;41.01;96666.31;5025415;28;20053;-54
2021/03/07 09:37:57;;;;;;;9.88;4.20;;;;;;;1.91;41.38;96665.88;5011429;28;20053;-54
2021/03/07 09:40:26;;;;;;;6.90;4.07;;;;;;;2.03;42.26;96656.59;5011582;28;20068;-54
2021/03/07 09:43:14;;;;;;;4.15;3.63;;;;;;;2.11;40.41;96653.91;4991177;28;20399;-54
2021/03/07 09:45:49;;;;;;;5.25;2.92;;;;;;;2.13;39.74;96645.91;5017313;28;20386;-54
2021/03/07 09:48:31;;;;;;;4.50;3.45;;;;;;;2.21;39.29;96638.00;5005036;28;20053;-59
2021/03/07 09:51:00;;;;;;;4.30;3.60;;;;;;;2.28;40.12;96630.22;5022464;28;20507;-54
2021/03/07 09:53:29;;;;;;;5.72;3.80;;;;;;;2.40;39.11;96631.34;4989033;28;20494;-54
2021/03/07 09:55:56;;;;;;;7.45;4.00;;;;;;;2.52;39.05;96628.28;4988339;28;20054;-56
2021/03/07 09:58:37;;;;;;;5.47;3.53;;;;;;;2.60;37.90;96620.31;4977134;28;20053;-53
2021/03/07 10:01:05;;;;;;;7.25;3.47;;;;;;;2.65;36.80;96619.75;5017829;28;20053;-53
2021/03/07 10:03:34;;;;;;;8.13;3.80;;;;;;;2.63;37.59;96612.16;5015100;28;20057;-55
2021/03/07 10:06:18;;;;;;;3.33;2.70;;;;;;;2.76;37.10;96614.03;4994608;28;20049;-54
2021/03/07 10:09:02;;;;;;;4.45;3.30;;;;;;;2.84;36.44;96613.91;4993119;28;20505;-54
2021/03/07 10:11:30;;;;;;;4.13;2.83;;;;;;;2.90;36.28;96610.53;5009012;28;20049;-55
2021/03/07 10:14:04;;;;;;;3.75;3.25;;;;;;;2.95;37.63;96607.38;5008671;28;20049;-56
2021/03/07 10:16:34;;;;;;;4.90;4.35;;;;;;;3.01;36.15;96611.84;5019303;28;20064;-55
2021/03/07 10:19:13;;;;;;;3.20;2.88;;;;;;;3.11;35.83;96595.84;4993621;28;20049;-61
2021/03/07 10:21:42;;;;;;;6.20;4.60;;;;;;;3.18;36.67;96591.50;5021749;28;20054;-55
2021/03/07 10:24:17;;;;;;;4.82;3.58;;;;;;;3.27;36.51;96596.53;4991455;28;20409;-55
2021/03/07 10:26:47;;;;;;;7.72;3.83;;;;;;;3.22;34.96;96576.25;5005382;28;20045;-55
2021/03/07 10:29:24;;;;;;;6.30;3.63;;;;;;;3.30;35.99;96573.47;5019095;28;20037;-55
2021/03/07 10:32:11;;;;;;;3.90;3.00;;;;;;;3.37;35.85;96569.13;5021853;28;20041;-54
2021/03/07 10:34:41;;;;;;;6.50;3.70;;;;;;;3.45;36.30;96569.94;5016706;28;20049;-55
2021/03/07 10:37:10;;;;;;;3.47;2.75;;;;;;;3.51;34.33;96564.75;4993059;28;20049;-54
2021/03/07 10:39:37;;;;;;;3.45;2.50;;;;;;;3.56;34.37;96558.97;5014197;28;20049;-57
2021/03/07 10:42:05;;;;;;;2.97;2.75;;;;;;;3.63;35.14;96546.72;5012010;28;20044;-56
2021/03/07 10:44:32;;;;;;;7.95;3.35;;;;;;;3.72;34.25;96538.75;5012800;28;20054;-54
2021/03/07 10:47:20;;;;;;;5.90;3.55;;;;;;;3.76;33.49;96547.78;4992971;28;20061;-54
2021/03/07 10:49:50;;;;;;;6.95;4.47;;;;;;;3.75;33.47;96543.59;5011937;28;20049;-60
2021/03/07 10:52:18;;;;;;;4.57;2.72;;;;;;;3.82;33.81;96531.34;4998462;28;20056;-55
2021/03/07 10:54:45;;;;;;;5.32;3.17;;;;;;;3.92;34.03;96529.16;5007438;28;20509;-55
2021/03/07 10:57:13;;;;;;;3.97;3.00;;;;;;;4.00;34.03;96528.97;5013439;28;20064;-54
2021/03/07 10:59:40;;;;;;;7.95;3.60;;;;;;;4.04;34.12;96512.91;4994505;28;20037;-54
2021/03/07 11:02:10;;;;;;;3.63;3.00;;;;;;;4.15;33.63;96517.53;4990430;28;20038;-57
2021/03/07 11:04:38;;;;;;;6.10;4.25;;;;;;;4.19;33.49;96512.72;4992388;28;20053;-55
2021/03/07 11:07:06;;;;;;;5.55;4.10;;;;;;;4.28;32.38;96507.09;4987361;28;20366;-55
2021/03/07 11:09:33;;;;;;;5.88;3.35;;;;;;;4.40;33.49;96499.47;4996164;28;20065;-55
2021/03/07 11:12:00;;;;;;;4.88;3.00;;;;;;;4.50;33.92;96485.19;5010626;28;20046;-55
2021/03/07 11:14:27;;;;;;;5.50;4.03;;;;;;;4.55;31.62;96482.78;4994668;28;20046;-55
2021/03/07 11:16:54;;;;;;;3.85;2.70;;;;;;;4.58;32.78;96480.56;4971600;28;20049;-53
2021/03/07 11:19:22;;;;;;;3.72;3.30;;;;;;;4.69;32.87;96470.50;4999696;28;20080;-53
2021/03/07 11:21:49;;;;;;;5.03;3.47;;;;;;;4.71;30.69;96460.66;4999476;28;20042;-54
2021/03/07 11:24:17;;;;;;;2.65;2.42;;;;;;;4.67;31.26;96462.88;5000010;28;20046;-60
2021/03/07 11:26:45;;;;;;;3.00;2.67;;;;;;;4.67;30.82;96451.59;4989116;28;20053;-54
2021/03/07 11:29:12;;;;;;;4.57;2.90;;;;;;;4.70;30.68;96452.00;5014463;28;20054;-57
2021/03/07 11:31:39;;;;;;;5.10;2.30;;;;;;;4.73;31.14;96450.81;4989508;28;20602;-57
2021/03/07 11:34:06;;;;;;;2.97;2.65;;;;;;;4.77;30.42;96444.94;4993000;28;20057;-56
2021/03/07 11:36:33;;;;;;;9.23;3.35;;;;;;;4.83;30.99;96442.50;4997824;28;20049;-55
2021/03/07 11:39:01;;;;;;;4.90;3.83;;;;;;;4.85;30.55;96437.88;4997902;28;20130;-55
2021/03/07 11:41:28;;;;;;;5.20;3.35;;;;;;;4.88;30.39;96438.28;4998804;28;20497;-56